createdAt,value
2023-05-16T00:02:07.327Z,11.52
2023-05-16T00:07:28.296Z,11.55
2023-05-16T00:12:51.924Z,11.65
2023-05-16T00:18:16.186Z,11.65
2023-05-16T00:23:36.950Z,11.53
2023-05-16T00:28:57.945Z,11.41
2023-05-16T00:34:21.414Z,11.38
2023-05-16T00:39:42.509Z,11.19
2023-05-16T00:45:04.065Z,11.19
2023-05-16T00:50:25.159Z,11.18
2023-05-16T00:55:48.009Z,11.22
2023-05-16T01:01:09.298Z,11.23
2023-05-16T01:06:30.441Z,11.27
2023-05-16T01:12:02.276Z,11.36
2023-05-16T01:17:41.551Z,11.36
2023-05-16T01:23:30.135Z,11.32
2023-05-16T01:28:52.592Z,11.32
2023-05-16T01:34:13.948Z,11.40
2023-05-16T01:39:42.530Z,11.43
2023-05-16T01:45:32.865Z,11.18
2023-05-16T01:50:57.654Z,11.08
2023-05-16T01:56:18.824Z,11.04
2023-05-16T02:01:39.882Z,11.08
2023-05-16T02:07:01.977Z,10.97
2023-05-16T02:12:22.994Z,10.78
2023-05-16T02:17:43.901Z,10.77
2023-05-16T02:23:04.568Z,10.92
2023-05-16T02:28:26.554Z,10.90
2023-05-16T02:33:47.358Z,10.86
2023-05-16T02:39:10.327Z,10.71
2023-05-16T02:44:31.363Z,10.49
2023-05-16T02:49:53.386Z,10.51
2023-05-16T02:55:21.663Z,10.72
2023-05-16T03:00:43.677Z,10.67
2023-05-16T03:06:04.766Z,10.63
2023-05-16T03:11:29.095Z,10.72
2023-05-16T03:16:50.100Z,10.66
2023-05-16T03:22:11.085Z,10.54
2023-05-16T03:27:31.998Z,10.49
2023-05-16T03:32:53.130Z,10.49
2023-05-16T03:38:14.437Z,10.47
2023-05-16T03:43:38.028Z,10.61
2023-05-16T03:48:59.096Z,10.57
2023-05-16T03:54:19.888Z,10.55
2023-05-16T03:59:40.700Z,10.48
2023-05-16T04:05:01.660Z,10.65
2023-05-16T04:10:22.777Z,10.74
2023-05-16T04:15:43.674Z,10.85
2023-05-16T04:21:04.859Z,10.87
2023-05-16T04:26:25.809Z,11.06
2023-05-16T04:31:46.844Z,11.25
2023-05-16T04:37:08.663Z,11.25
2023-05-16T04:42:29.871Z,11.26
2023-05-16T04:47:51.598Z,11.42
2023-05-16T04:53:12.522Z,11.66
2023-05-16T04:58:33.165Z,12.59
2023-05-16T05:03:55.298Z,13.43
2023-05-16T05:09:17.974Z,13.93
2023-05-16T05:14:38.695Z,14.01
2023-05-16T05:20:02.468Z,14.10
2023-05-16T05:25:24.142Z,14.21
2023-05-16T05:30:44.993Z,14.09
2023-05-16T05:36:06.238Z,13.82
2023-05-16T05:41:27.899Z,13.85
2023-05-16T05:46:49.075Z,14.04
2023-05-16T05:52:10.158Z,14.14
2023-05-16T05:57:31.579Z,14.28
2023-05-16T06:02:52.639Z,14.49
2023-05-16T06:08:13.742Z,14.62
2023-05-16T06:13:34.679Z,14.71
2023-05-16T06:18:57.642Z,15.16
2023-05-16T06:24:20.122Z,15.79
2023-05-16T06:29:41.066Z,15.62
2023-05-16T06:35:02.198Z,15.77
2023-05-16T06:40:22.909Z,15.74
2023-05-16T06:45:46.719Z,16.12
2023-05-16T06:51:08.077Z,16.23
2023-05-16T06:56:29.097Z,16.41
2023-05-16T07:01:50.231Z,16.61
2023-05-16T07:07:11.524Z,16.53
2023-05-16T07:12:32.518Z,16.58
2023-05-16T07:17:53.393Z,16.82
2023-05-16T07:23:14.479Z,17.03
2023-05-16T07:28:35.616Z,16.92
2023-05-16T07:33:56.408Z,16.96
2023-05-16T07:39:17.425Z,17.15
2023-05-16T07:44:38.296Z,17.13
2023-05-16T07:49:59.284Z,17.16
2023-05-16T07:55:20.165Z,17.37
2023-05-16T08:00:41.271Z,17.47
2023-05-16T08:06:02.125Z,17.50
2023-05-16T08:11:23.545Z,17.37
2023-05-16T08:16:44.970Z,17.26
2023-05-16T08:22:09.180Z,17.37
2023-05-16T08:27:30.283Z,17.30
2023-05-16T08:32:50.924Z,17.00
2023-05-16T08:38:12.398Z,16.75
2023-05-16T08:43:35.195Z,16.65
2023-05-16T08:48:59.974Z,16.69
2023-05-16T08:54:23.006Z,16.73
2023-05-16T08:59:45.209Z,16.90
2023-05-16T09:05:08.826Z,17.17
2023-05-16T09:10:29.920Z,17.39
2023-05-16T09:16:12.631Z,17.27
2023-05-16T09:21:36.040Z,17.16
2023-05-16T09:26:57.022Z,16.74
2023-05-16T09:32:18.730Z,16.67
2023-05-16T09:37:44.839Z,16.87
2023-05-16T09:43:08.484Z,17.04
2023-05-16T09:48:29.799Z,17.09
2023-05-16T09:53:50.913Z,17.03
2023-05-16T09:59:11.905Z,16.84
2023-05-16T10:04:33.669Z,16.81
2023-05-16T10:09:56.094Z,16.76
2023-05-16T10:15:17.749Z,16.66
2023-05-16T10:20:41.714Z,16.66
2023-05-16T10:26:06.175Z,16.68
2023-05-16T10:31:29.451Z,16.69
2023-05-16T10:36:51.023Z,16.74
2023-05-16T10:42:14.601Z,16.72
2023-05-16T10:47:35.860Z,16.68
2023-05-16T10:52:57.327Z,16.78
2023-05-16T10:58:25.555Z,16.80
2023-05-16T11:04:04.846Z,16.73
2023-05-16T11:09:28.045Z,16.65
2023-05-16T11:14:52.131Z,16.59
2023-05-16T11:20:32.667Z,16.33
2023-05-16T11:26:01.395Z,16.00
2023-05-16T11:31:25.019Z,15.86
2023-05-16T11:36:46.514Z,15.71
2023-05-16T11:42:07.497Z,15.66
2023-05-16T11:47:29.947Z,15.74
2023-05-16T11:52:57.271Z,15.74
2023-05-16T11:58:20.156Z,15.79
2023-05-16T12:03:41.508Z,15.76
2023-05-16T12:09:10.079Z,15.64
2023-05-16T12:14:31.008Z,15.62
2023-05-16T12:19:52.471Z,15.60
2023-05-16T12:25:33.112Z,15.48
2023-05-16T12:30:54.018Z,15.33
2023-05-16T12:36:15.683Z,15.29
2023-05-16T12:41:42.437Z,14.97
2023-05-16T12:47:03.510Z,14.94
2023-05-16T12:52:24.645Z,14.92
2023-05-16T12:57:50.434Z,14.80
2023-05-16T13:03:12.291Z,14.61
2023-05-16T13:08:33.934Z,14.42
2023-05-16T13:13:54.979Z,14.26
2023-05-16T13:19:16.509Z,14.21
2023-05-16T13:24:38.467Z,14.25
2023-05-16T13:30:00.019Z,14.31
2023-05-16T13:35:21.806Z,14.35
2023-05-16T13:40:42.987Z,14.19
2023-05-16T13:46:04.127Z,13.92
2023-05-16T13:51:25.547Z,13.91
2023-05-16T13:56:46.811Z,13.74
2023-05-16T14:02:07.857Z,13.44
2023-05-16T14:07:28.516Z,13.20
2023-05-16T14:12:49.420Z,13.05
2023-05-16T14:18:10.383Z,13.03
2023-05-16T14:23:31.832Z,12.98
2023-05-16T14:28:53.211Z,12.76
2023-05-16T14:34:14.123Z,12.62
2023-05-16T14:39:35.195Z,12.49
2023-05-16T14:44:56.378Z,12.35
2023-05-16T14:50:17.349Z,12.27
2023-05-16T14:55:39.032Z,12.22
2023-05-16T15:00:59.883Z,12.16
2023-05-16T15:06:20.671Z,12.16
2023-05-16T15:11:41.872Z,12.08
2023-05-16T15:17:05.409Z,12.04
2023-05-16T15:22:30.072Z,11.98
2023-05-16T15:27:51.818Z,12.01
2023-05-16T15:33:13.756Z,11.90
2023-05-16T15:38:35.454Z,11.98
2023-05-16T15:43:56.682Z,11.89
2023-05-16T15:49:17.575Z,11.85
2023-05-16T15:54:38.403Z,11.76
2023-05-16T15:59:59.202Z,11.77
2023-05-16T16:05:21.633Z,11.70
2023-05-16T16:10:42.365Z,11.66
2023-05-16T16:16:03.437Z,11.53
2023-05-16T16:21:24.383Z,11.50
2023-05-16T16:26:45.246Z,11.37
2023-05-16T16:32:06.716Z,11.31
2023-05-16T16:37:27.886Z,11.26
2023-05-16T16:42:50.898Z,11.18
2023-05-16T16:48:12.313Z,11.16
2023-05-16T16:53:35.309Z,11.18
2023-05-16T16:58:56.616Z,11.19
2023-05-16T17:04:19.614Z,11.08
2023-05-16T17:09:43.118Z,11.02
2023-05-16T17:15:06.757Z,10.97
2023-05-16T17:20:27.903Z,10.98
2023-05-16T17:25:48.769Z,11.02
2023-05-16T17:31:09.677Z,11.03
2023-05-16T17:36:31.123Z,11.07
2023-05-16T17:41:57.876Z,11.08
2023-05-16T17:47:19.800Z,11.03
2023-05-16T17:52:40.818Z,10.88
2023-05-16T17:58:01.733Z,10.80
2023-05-16T18:03:22.906Z,10.71
2023-05-16T18:08:45.725Z,10.65
2023-05-16T18:14:09.365Z,10.58
2023-05-16T18:19:31.866Z,10.60
2023-05-16T18:24:54.670Z,10.57
2023-05-16T18:30:16.488Z,10.61
2023-05-16T18:35:37.346Z,10.61
2023-05-16T18:40:58.526Z,10.64
2023-05-16T18:46:19.486Z,10.60
2023-05-16T18:51:40.898Z,10.68
2023-05-16T18:57:05.483Z,10.73
2023-05-16T19:02:37.882Z,10.68
2023-05-16T19:08:03.116Z,10.55
2023-05-16T19:13:30.897Z,10.45
2023-05-16T19:18:52.230Z,10.49
2023-05-16T19:24:13.147Z,10.47
2023-05-16T19:29:33.983Z,10.52
2023-05-16T19:34:55.282Z,10.48
2023-05-16T19:40:19.604Z,10.42
2023-05-16T19:45:40.486Z,10.42
2023-05-16T19:51:01.595Z,10.47
2023-05-16T19:56:23.315Z,10.48
2023-05-16T20:01:44.492Z,10.45
2023-05-16T20:07:07.641Z,10.44
2023-05-16T20:12:28.715Z,10.39
2023-05-16T20:17:49.686Z,10.39
2023-05-16T20:23:10.500Z,10.32
2023-05-16T20:28:31.959Z,10.37
2023-05-16T20:33:52.776Z,10.39
2023-05-16T20:39:13.850Z,10.45
2023-05-16T20:44:35.118Z,10.47
2023-05-16T20:49:57.391Z,10.42
2023-05-16T20:55:19.040Z,10.37
2023-05-16T21:00:40.007Z,10.37
2023-05-16T21:06:04.193Z,10.32
2023-05-16T21:11:28.141Z,10.27
2023-05-16T21:16:49.186Z,10.23
2023-05-16T21:22:11.387Z,10.17
2023-05-16T21:27:33.154Z,10.15
2023-05-16T21:32:54.069Z,10.11
2023-05-16T21:38:17.786Z,10.09
2023-05-16T21:43:38.922Z,10.08
2023-05-16T21:49:00.149Z,10.08
2023-05-16T21:54:21.202Z,10.07
2023-05-16T21:59:42.136Z,10.16
2023-05-16T22:05:03.542Z,10.18
2023-05-16T22:10:24.844Z,10.12
2023-05-16T22:15:52.096Z,10.15
2023-05-16T22:21:17.220Z,10.13
2023-05-16T22:26:38.436Z,10.16
2023-05-16T22:31:59.469Z,10.22
2023-05-16T22:37:21.175Z,10.18
2023-05-16T22:42:42.342Z,10.18
2023-05-16T22:48:03.201Z,10.04
2023-05-16T22:53:24.120Z,10.00
2023-05-16T22:58:44.817Z,10.02
2023-05-16T23:04:06.203Z,10.07
2023-05-16T23:09:27.215Z,10.09
2023-05-16T23:14:48.280Z,10.09
2023-05-16T23:20:09.580Z,10.07
2023-05-16T23:25:30.685Z,10.05
2023-05-16T23:30:51.915Z,10.03
2023-05-16T23:36:12.765Z,9.99
2023-05-16T23:41:33.875Z,9.98
2023-05-16T23:46:54.971Z,10.02
2023-05-16T23:52:15.813Z,10.00
2023-05-16T23:57:36.559Z,10.04
